Time;durP1;ratioP1;P1;durP2;ratioP2;P2;SDS_P1;SDS_P2;PMS_P1;PMS_P2;Temp;Humidity;BMP_temperature;BMP_pressure;BME280_temperature;BME280_humidity;BME280_pressure;Samples;Min_cycle;Max_cycle;Signal;HPM_P1;HPM_P2
2021/12/11 00:00:48;;;;;;;21.00;13.43;;;0.60;99.90;;;;;;5135590;27;20045;-73
2021/12/11 00:03:23;;;;;;;21.70;13.63;;;0.60;99.90;;;;;;5117617;27;20130;-73
2021/12/11 00:05:55;;;;;;;18.63;12.75;;;0.60;99.90;;;;;;5123825;27;20046;-73
2021/12/11 00:08:25;;;;;;;19.63;13.35;;;0.50;99.90;;;;;;5136428;27;20095;-73
2021/12/11 00:11:05;;;;;;;19.63;13.00;;;0.60;99.90;;;;;;5137712;27;20042;-73
2021/12/11 00:13:36;;;;;;;25.92;16.15;;;0.50;99.90;;;;;;5138821;27;20129;-72
2021/12/11 00:16:03;;;;;;;24.30;13.18;;;0.40;99.90;;;;;;5118871;27;20047;-72
2021/12/11 00:18:30;;;;;;;21.45;13.43;;;0.40;99.90;;;;;;5118055;27;21099;-73
2021/12/11 00:21:09;;;;;;;18.98;14.55;;;0.40;99.90;;;;;;5118553;27;20043;-72
2021/12/11 00:23:39;;;;;;;18.55;13.50;;;0.40;99.90;;;;;;5116184;27;20043;-72
2021/12/11 00:26:07;;;;;;;18.00;13.07;;;0.40;99.90;;;;;;5136543;27;20117;-72
2021/12/11 00:28:41;;;;;;;21.33;15.15;;;0.40;99.90;;;;;;5118422;27;20046;-73
2021/12/11 00:31:07;;;;;;;21.02;13.77;;;0.40;99.90;;;;;;5117439;27;20042;-73
2021/12/11 00:33:33;;;;;;;25.38;14.52;;;0.40;99.90;;;;;;5137295;27;20822;-72
2021/12/11 00:35:59;;;;;;;18.42;12.38;;;0.40;99.90;;;;;;5137660;27;20175;-72
2021/12/11 00:38:33;;;;;;;19.38;13.30;;;0.40;99.90;;;;;;5139453;27;20477;-72
2021/12/11 00:41:00;;;;;;;21.70;13.35;;;0.40;99.90;;;;;;5116155;27;20046;-72
2021/12/11 00:43:29;;;;;;;14.77;11.38;;;0.30;99.90;;;;;;5118696;27;20107;-72
2021/12/11 00:45:57;;;;;;;21.10;13.02;;;0.30;99.90;;;;;;5115262;27;20050;-72
2021/12/11 00:48:25;;;;;;;13.73;10.43;;;0.30;99.90;;;;;;5139551;27;20039;-72
2021/12/11 00:50:57;;;;;;;15.85;11.77;;;0.30;99.90;;;;;;5122780;27;20053;-71
2021/12/11 00:53:31;;;;;;;22.17;13.25;;;0.30;99.90;;;;;;5140927;27;20117;-71
2021/12/11 00:56:05;;;;;;;23.20;13.13;;;0.30;99.90;;;;;;5123244;27;20839;-72
2021/12/11 00:58:35;;;;;;;18.42;13.07;;;0.30;99.90;;;;;;5123254;27;20050;-73
2021/12/11 01:01:14;;;;;;;16.77;12.63;;;0.30;99.90;;;;;;5120532;27;20413;-72
2021/12/11 01:03:54;;;;;;;18.63;13.45;;;0.30;99.90;;;;;;5138660;27;20049;-73
2021/12/11 01:06:27;;;;;;;18.52;11.88;;;0.40;99.90;;;;;;5138304;27;20123;-72
2021/12/11 01:08:59;;;;;;;;;;;0.40;99.90;;;;;;5122958;27;20046;-72
2021/12/11 01:11:53;;;;;;;17.48;12.95;;;0.30;99.90;;;;;;5121938;27;19930;-71
2021/12/11 01:14:30;;;;;;;20.20;14.50;;;0.30;99.90;;;;;;5119479;27;20043;-72
2021/12/11 01:17:03;;;;;;;26.88;13.60;;;0.30;99.90;;;;;;5119256;27;20050;-72
2021/12/11 01:19:38;;;;;;;19.10;15.85;;;0.30;99.90;;;;;;5122685;27;20086;-72
2021/12/11 01:22:20;;;;;;;23.63;13.50;;;0.30;99.90;;;;;;5121193;27;20046;-72
2021/12/11 01:24:47;;;;;;;15.80;12.02;;;0.20;99.90;;;;;;5141163;27;20436;-72
2021/12/11 01:27:21;;;;;;;19.17;13.40;;;0.20;99.90;;;;;;5121055;27;20078;-72
2021/12/11 01:29:50;;;;;;;15.38;11.68;;;0.20;99.90;;;;;;5121171;27;20802;-72
2021/12/11 01:32:16;;;;;;;19.90;12.85;;;0.20;99.90;;;;;;5119352;27;20752;-72
2021/12/11 01:34:43;;;;;;;19.38;12.30;;;0.20;99.90;;;;;;5122080;27;20749;-72
2021/12/11 01:37:09;;;;;;;18.77;12.48;;;0.20;99.90;;;;;;5141946;27;20086;-72
2021/12/11 01:39:38;;;;;;;13.73;10.52;;;0.20;99.90;;;;;;5119242;27;20049;-71
2021/12/11 01:42:11;;;;;;;19.85;11.15;;;0.20;99.90;;;;;;5120737;27;20837;-72
2021/12/11 01:44:38;;;;;;;15.15;10.80;;;0.20;99.90;;;;;;5140894;27;20080;-71
2021/12/11 01:47:11;;;;;;;17.40;9.48;;;0.10;99.90;;;;;;5122024;27;20490;-72
2021/12/11 01:49:41;;;;;;;18.02;10.38;;;0.10;99.90;;;;;;5119405;27;20057;-71
2021/12/11 01:52:14;;;;;;;15.77;10.27;;;0.10;99.90;;;;;;5122774;27;20490;-72
2021/12/11 01:54:44;;;;;;;15.25;8.98;;;0.10;99.90;;;;;;5123930;27;20102;-72
2021/12/11 01:57:22;;;;;;;14.65;10.30;;;0.10;99.90;;;;;;5141717;27;20053;-71
2021/12/11 01:59:54;;;;;;;10.95;9.73;;;0.10;99.90;;;;;;5123222;27;20059;-72
2021/12/11 02:02:25;;;;;;;15.25;9.32;;;0.10;99.90;;;;;;5123437;27;20039;-71
2021/12/11 02:04:54;;;;;;;15.25;10.68;;;0.10;99.90;;;;;;5142380;27;20079;-72
2021/12/11 02:07:25;;;;;;;15.48;9.93;;;0.10;99.90;;;;;;5122649;27;20055;-72
2021/12/11 02:09:57;;;;;;;14.57;8.23;;;0.10;99.90;;;;;;5122841;27;20054;-72
2021/12/11 02:12:32;;;;;;;16.73;9.10;;;0.10;99.90;;;;;;5135091;27;20061;-72
2021/12/11 02:15:01;;;;;;;13.13;9.05;;;0.10;99.90;;;;;;5163469;27;20095;-71
2021/12/11 02:17:44;;;;;;;15.13;8.85;;;0.10;99.90;;;;;;5162590;27;20050;-72
2021/12/11 02:20:13;;;;;;;12.63;10.43;;;0.10;99.90;;;;;;5130973;27;20051;-71
2021/12/11 02:22:45;;;;;;;16.63;10.52;;;0.10;99.90;;;;;;5122269;27;20051;-72
2021/12/11 02:25:22;;;;;;;18.05;11.07;;;0.00;99.90;;;;;;5102586;27;20759;-72
2021/12/11 02:27:58;;;;;;;14.35;9.57;;;0.00;99.90;;;;;;5121429;27;20060;-72
2021/12/11 02:30:36;;;;;;;19.63;11.73;;;0.00;99.90;;;;;;5123980;27;20255;-72
2021/12/11 02:33:17;;;;;;;19.20;10.77;;;0.00;99.90;;;;;;5131536;27;20495;-71
2021/12/11 02:35:52;;;;;;;16.00;9.55;;;0.00;99.90;;;;;;5161132;27;20584;-72
2021/12/11 02:38:53;;;;;;;15.50;10.20;;;0.00;99.90;;;;;;5110750;27;20047;-72
2021/12/11 02:41:31;;;;;;;13.13;9.77;;;0.00;99.90;;;;;;5081439;27;20063;-72
2021/12/11 02:44:03;;;;;;;14.27;10.32;;;0.00;99.90;;;;;;5101995;27;20069;-71
2021/12/11 02:46:47;;;;;;;15.65;10.73;;;0.00;99.90;;;;;;5101242;27;20043;-72
2021/12/11 02:49:19;;;;;;;14.95;11.00;;;0.00;99.90;;;;;;5125186;27;20065;-73
2021/12/11 02:51:54;;;;;;;19.50;11.23;;;0.00;99.90;;;;;;5142934;27;20390;-72
2021/12/11 02:54:41;;;;;;;15.38;9.95;;;-0.10;99.90;;;;;;5158324;27;20050;-72
2021/12/11 02:57:31;;;;;;;16.40;9.95;;;0.00;99.90;;;;;;5120519;27;20493;-72
2021/12/11 03:00:12;;;;;;;18.15;12.02;;;0.00;99.90;;;;;;5101300;27;20051;-71
2021/12/11 03:02:43;;;;;;;16.45;11.13;;;0.00;99.90;;;;;;5103202;27;20083;-72
2021/12/11 03:05:12;;;;;;;20.58;12.35;;;0.00;99.90;;;;;;5125802;27;20054;-72
2021/12/11 03:07:39;;;;;;;17.70;11.15;;;0.00;99.90;;;;;;5162049;27;20058;-72
2021/12/11 03:10:13;;;;;;;17.00;11.20;;;0.10;99.90;;;;;;5162478;27;20054;-72
2021/12/11 03:12:40;;;;;;;14.35;10.48;;;0.00;99.90;;;;;;5141432;27;20050;-72
2021/12/11 03:15:08;;;;;;;18.23;11.77;;;0.00;99.90;;;;;;5144433;27;20035;-72
2021/12/11 03:17:34;;;;;;;13.02;10.60;;;-0.10;99.90;;;;;;5123475;27;20046;-71
2021/12/11 03:19:59;;;;;;;18.95;12.02;;;0.00;99.90;;;;;;5141643;27;20602;-72
2021/12/11 03:22:31;;;;;;;20.20;12.88;;;0.00;99.90;;;;;;5142573;27;20043;-72
2021/12/11 03:24:59;;;;;;;19.48;12.25;;;0.00;99.90;;;;;;5123578;27;20051;-71
2021/12/11 03:27:25;;;;;;;17.80;10.60;;;0.00;99.90;;;;;;5122768;27;20054;-72
2021/12/11 03:29:51;;;;;;;17.25;11.95;;;0.00;99.90;;;;;;5142123;27;20118;-71
2021/12/11 03:32:19;;;;;;;20.60;11.13;;;0.00;99.90;;;;;;5141552;27;20046;-72
2021/12/11 03:34:47;;;;;;;19.05;12.05;;;0.00;99.90;;;;;;5153647;27;20070;-72
2021/12/11 03:37:16;;;;;;;20.65;12.98;;;0.00;99.90;;;;;;5120220;27;20055;-71
2021/12/11 03:39:46;;;;;;;16.98;11.20;;;0.00;99.90;;;;;;5104499;27;20130;-71
2021/12/11 03:42:17;;;;;;;18.75;12.27;;;0.00;99.90;;;;;;5161213;27;20059;-72
2021/12/11 03:44:44;;;;;;;17.88;10.75;;;0.00;99.90;;;;;;5143244;27;20800;-71
2021/12/11 03:47:32;;;;;;;17.85;11.32;;;0.10;99.90;;;;;;5135259;27;20111;-72
2021/12/11 03:49:58;;;;;;;19.95;11.65;;;0.10;99.90;;;;;;5101393;27;20081;-72
2021/12/11 03:52:25;;;;;;;17.75;10.70;;;0.10;99.90;;;;;;5120597;27;20337;-72
2021/12/11 03:54:53;;;;;;;18.38;11.95;;;0.00;99.90;;;;;;5119034;27;20054;-72
2021/12/11 03:57:24;;;;;;;17.42;11.52;;;0.00;99.90;;;;;;5141912;27;20046;-72
2021/12/11 03:59:52;;;;;;;18.40;10.90;;;0.00;99.90;;;;;;5136926;27;20042;-72
2021/12/11 04:02:24;;;;;;;21.08;12.63;;;-0.10;99.90;;;;;;5136324;27;20043;-72
2021/12/11 04:04:54;;;;;;;17.93;12.17;;;-0.10;99.90;;;;;;5102533;27;20035;-71
2021/12/11 04:07:25;;;;;;;16.45;12.65;;;-0.10;99.90;;;;;;5151655;27;20106;-71
2021/12/11 04:09:50;;;;;;;21.58;13.25;;;-0.10;99.90;;;;;;5161584;27;20050;-72
2021/12/11 04:12:18;;;;;;;18.85;13.02;;;-0.10;99.90;;;;;;5112341;27;20085;-72
2021/12/11 04:14:47;;;;;;;22.30;13.63;;;-0.10;99.90;;;;;;5132620;27;20050;-73
2021/12/11 04:17:18;;;;;;;15.80;11.50;;;-0.10;99.90;;;;;;5142563;27;20054;-73
2021/12/11 04:19:45;;;;;;;22.40;12.82;;;-0.10;99.90;;;;;;5135894;27;20076;-73
2021/12/11 04:22:11;;;;;;;22.73;12.25;;;-0.10;99.90;;;;;;5111663;27;20050;-72
2021/12/11 04:24:40;;;;;;;23.17;11.85;;;0.00;99.90;;;;;;5120894;27;20095;-73
2021/12/11 04:27:08;;;;;;;13.98;11.57;;;0.00;99.90;;;;;;5140364;27;20042;-73
2021/12/11 04:29:34;;;;;;;18.95;11.05;;;0.00;99.90;;;;;;5121688;27;20096;-73
2021/12/11 04:32:01;;;;;;;19.85;12.27;;;0.00;99.90;;;;;;5148125;27;20042;-73
2021/12/11 04:34:27;;;;;;;17.05;10.23;;;-0.10;99.90;;;;;;5161360;27;20119;-73
2021/12/11 04:37:00;;;;;;;17.33;9.93;;;0.00;99.90;;;;;;5134850;27;20138;-73
2021/12/11 04:39:33;;;;;;;21.42;11.75;;;0.00;99.90;;;;;;5119874;28;20860;-73
2021/12/11 04:42:05;;;;;;;18.88;11.90;;;-0.10;99.90;;;;;;5119610;28;20839;-73
2021/12/11 04:44:38;;;;;;;18.17;9.98;;;-0.10;99.90;;;;;;5100837;28;20080;-73
2021/12/11 04:47:14;;;;;;;19.02;11.13;;;-0.10;99.90;;;;;;5119978;28;20138;-73
2021/12/11 04:49:48;;;;;;;21.17;11.77;;;-0.10;99.90;;;;;;5120056;28;20059;-73
2021/12/11 04:52:33;;;;;;;20.85;12.25;;;-0.10;99.90;;;;;;5119058;28;20467;-73
2021/12/11 05:11:22;;;;;;;17.80;12.00;;;0.00;99.90;;;;;;5120058;28;20093;-73
2021/12/11 05:13:48;;;;;;;21.58;12.00;;;-0.10;99.90;;;;;;5101190;28;20054;-73
2021/12/11 05:16:15;;;;;;;15.93;11.02;;;-0.10;99.90;;;;;;5101357;28;20517;-73
2021/12/11 05:18:44;;;;;;;17.60;12.18;;;0.00;99.90;;;;;;5119345;28;20055;-73
2021/12/11 05:21:15;;;;;;;16.77;10.65;;;0.00;99.90;;;;;;5144134;27;20418;-73
2021/12/11 05:23:42;;;;;;;17.60;12.00;;;0.00;99.90;;;;;;5101667;28;20546;-73
2021/12/11 05:26:07;;;;;;;13.82;9.57;;;0.00;99.90;;;;;;5120645;28;20724;-73
2021/12/11 05:28:34;;;;;;;16.90;10.50;;;0.10;99.90;;;;;;5101308;28;20051;-73
2021/12/11 05:31:03;;;;;;;14.88;11.02;;;0.00;99.90;;;;;;5101497;28;20127;-73
2021/12/11 05:33:29;;;;;;;14.35;9.07;;;0.00;99.90;;;;;;5119177;27;20054;-73
2021/12/11 05:35:55;;;;;;;15.00;10.40;;;0.00;99.90;;;;;;5142061;27;20052;-74
2021/12/11 05:38:23;;;;;;;17.88;10.63;;;0.00;99.90;;;;;;5139715;27;20049;-73
2021/12/11 05:40:53;;;;;;;13.40;9.65;;;0.00;99.90;;;;;;5143563;27;20123;-73
2021/12/11 05:43:19;;;;;;;19.15;11.57;;;0.00;99.90;;;;;;5144276;27;20142;-73
2021/12/11 05:45:46;;;;;;;14.25;10.32;;;0.00;99.90;;;;;;5125673;27;20529;-73
2021/12/11 05:48:12;;;;;;;14.73;10.45;;;0.00;99.90;;;;;;5144077;27;20046;-73
2021/12/11 05:50:53;;;;;;;19.85;12.32;;;0.00;99.90;;;;;;5125183;27;20047;-72
2021/12/11 05:53:20;;;;;;;16.73;11.18;;;0.00;99.90;;;;;;5125533;27;20038;-73
2021/12/11 05:55:49;;;;;;;13.57;10.25;;;0.00;99.90;;;;;;5124580;27;20096;-74
2021/12/11 05:58:25;;;;;;;15.82;11.05;;;0.00;99.90;;;;;;5142941;27;20821;-73
2021/12/11 06:00:52;;;;;;;19.95;11.20;;;0.00;99.90;;;;;;5125103;27;20042;-73
2021/12/11 06:03:19;;;;;;;21.70;13.02;;;0.10;99.90;;;;;;5123846;27;20047;-73
2021/12/11 06:05:45;;;;;;;19.77;12.35;;;0.00;99.90;;;;;;5148476;27;20050;-73
2021/12/11 06:08:12;;;;;;;18.67;11.73;;;0.00;99.90;;;;;;5145441;27;20050;-73
2021/12/11 06:10:40;;;;;;;16.23;11.13;;;0.00;99.90;;;;;;5163894;27;20046;-73
2021/12/11 06:13:08;;;;;;;17.90;11.70;;;0.00;99.90;;;;;;5154261;27;20088;-74
2021/12/11 06:15:34;;;;;;;17.10;10.10;;;0.00;99.90;;;;;;5121747;27;20122;-73
2021/12/11 06:18:02;;;;;;;17.73;10.50;;;0.00;99.90;;;;;;5122406;27;20043;-74
2021/12/11 06:20:30;;;;;;;14.13;10.13;;;0.00;99.90;;;;;;5122553;27;20078;-73
2021/12/11 06:22:55;;;;;;;25.70;13.60;;;0.00;99.90;;;;;;5103775;27;20453;-73
2021/12/11 06:25:28;;;;;;;19.73;11.23;;;0.00;99.90;;;;;;5122376;27;20154;-73
2021/12/11 06:27:54;;;;;;;17.75;10.65;;;-0.10;99.90;;;;;;5103622;27;20062;-73
2021/12/11 06:30:21;;;;;;;22.40;10.77;;;0.00;99.90;;;;;;5121514;27;20047;-73
2021/12/11 06:32:48;;;;;;;17.73;11.43;;;-0.10;99.90;;;;;;5103940;27;20154;-73
2021/12/11 06:35:27;;;;;;;16.42;10.65;;;0.00;99.90;;;;;;5103963;27;20073;-73
2021/12/11 06:37:53;;;;;;;19.27;10.95;;;0.00;99.90;;;;;;5114579;27;20835;-74
2021/12/11 06:40:20;;;;;;;14.88;9.85;;;-0.10;99.90;;;;;;5131044;27;20096;-74
2021/12/11 06:42:46;;;;;;;17.15;11.05;;;0.00;99.90;;;;;;5163258;27;20050;-73
2021/12/11 06:45:12;;;;;;;16.77;10.70;;;0.00;99.90;;;;;;5161278;27;20045;-73
2021/12/11 06:47:38;;;;;;;17.50;11.00;;;0.00;99.90;;;;;;5144208;27;20042;-74
2021/12/11 06:50:05;;;;;;;16.98;11.27;;;0.00;99.90;;;;;;5125229;27;20092;-73
2021/12/11 06:52:32;;;;;;;17.58;10.57;;;0.00;99.90;;;;;;5136300;27;20662;-73
2021/12/11 06:54:57;;;;;;;18.45;11.15;;;0.00;99.90;;;;;;5118970;27;20052;-73
2021/12/11 06:57:23;;;;;;;21.58;12.05;;;0.00;99.90;;;;;;5137705;27;20042;-73
2021/12/11 06:59:49;;;;;;;17.73;11.38;;;0.00;99.90;;;;;;5137228;27;20142;-74
2021/12/11 07:02:19;;;;;;;21.42;12.35;;;0.00;99.90;;;;;;5118634;27;20153;-74
2021/12/11 07:04:46;;;;;;;18.45;11.82;;;0.00;99.90;;;;;;5117574;27;20050;-74
2021/12/11 07:07:18;;;;;;;17.80;11.82;;;0.10;99.90;;;;;;5138957;27;20046;-73
2021/12/11 07:09:44;;;;;;;19.93;11.40;;;0.10;99.90;;;;;;5137334;27;20054;-74
2021/12/11 07:12:10;;;;;;;17.23;12.52;;;0.10;99.90;;;;;;5109251;27;20053;-74
2021/12/11 07:14:35;;;;;;;16.10;11.40;;;0.10;99.90;;;;;;5136531;27;20085;-74
2021/12/11 07:17:01;;;;;;;18.35;11.15;;;0.10;99.90;;;;;;5117711;27;20043;-75
2021/12/11 07:19:27;;;;;;;19.00;12.27;;;0.20;99.90;;;;;;5135767;27;20046;-74
2021/12/11 07:21:54;;;;;;;22.30;12.57;;;0.10;99.90;;;;;;5117929;27;20042;-74
2021/12/11 07:24:29;;;;;;;18.50;12.88;;;0.10;99.90;;;;;;5136829;27;20043;-74
2021/12/11 07:26:55;;;;;;;20.45;10.95;;;0.10;99.90;;;;;;5103138;27;20597;-74
2021/12/11 07:29:21;;;;;;;20.40;12.15;;;0.10;99.90;;;;;;5117088;27;20061;-74
2021/12/11 07:31:49;;;;;;;17.38;12.60;;;0.10;99.90;;;;;;5116570;27;20050;-74
2021/12/11 07:34:15;;;;;;;18.33;11.63;;;0.20;99.90;;;;;;5134448;27;20576;-74
2021/12/11 07:36:42;;;;;;;22.92;13.15;;;0.30;99.90;;;;;;5117672;27;20046;-74
2021/12/11 07:39:11;;;;;;;15.00;11.02;;;0.20;99.90;;;;;;5135570;27;20533;-74
2021/12/11 07:41:37;;;;;;;17.63;12.30;;;0.20;99.90;;;;;;5131339;27;20754;-74
2021/12/11 07:44:04;;;;;;;22.88;12.73;;;0.30;99.90;;;;;;5134496;27;20084;-75
2021/12/11 07:46:31;;;;;;;26.90;13.45;;;0.30;99.90;;;;;;5116349;27;20074;-75
2021/12/11 07:48:57;;;;;;;20.13;13.43;;;0.30;99.90;;;;;;5117991;27;20115;-74
2021/12/11 07:51:25;;;;;;;20.13;12.13;;;0.30;99.90;;;;;;5137027;27;20054;-74
2021/12/11 07:53:54;;;;;;;18.73;11.93;;;0.30;99.90;;;;;;5119356;27;20145;-74
2021/12/11 07:56:20;;;;;;;19.02;13.15;;;0.30;99.90;;;;;;5137102;27;20186;-74
2021/12/11 07:58:48;;;;;;;20.67;11.93;;;0.30;99.90;;;;;;5108076;27;20050;-74
2021/12/11 08:01:14;;;;;;;19.35;12.75;;;0.30;99.90;;;;;;5144877;27;20615;-73
2021/12/11 08:03:40;;;;;;;19.92;12.32;;;0.30;99.90;;;;;;5117370;27;20119;-74
2021/12/11 08:06:07;;;;;;;19.95;13.57;;;0.40;99.90;;;;;;5119061;27;20038;-74
2021/12/11 08:08:33;;;;;;;19.98;12.73;;;0.30;99.90;;;;;;5136837;27;20157;-74
2021/12/11 08:11:03;;;;;;;21.00;12.10;;;0.40;99.90;;;;;;5118040;27;20045;-74
2021/12/11 08:13:28;;;;;;;22.38;11.90;;;0.40;99.90;;;;;;5120349;27;20054;-74
2021/12/11 08:15:56;;;;;;;17.35;13.02;;;0.40;99.90;;;;;;5117129;27;20370;-74
2021/12/11 08:18:24;;;;;;;17.38;11.70;;;0.40;99.90;;;;;;5139177;27;20544;-74
2021/12/11 08:20:50;;;;;;;15.45;10.25;;;0.40;99.90;;;;;;5119660;27;20042;-72
2021/12/11 08:23:16;;;;;;;25.63;14.88;;;0.50;99.90;;;;;;5137866;27;20039;-74
2021/12/11 08:25:44;;;;;;;26.13;14.60;;;0.50;99.90;;;;;;5128434;27;20103;-74
2021/12/11 08:28:13;;;;;;;19.40;13.38;;;0.50;99.90;;;;;;5160614;27;20050;-74
2021/12/11 08:30:41;;;;;;;19.95;12.30;;;0.50;99.90;;;;;;5160744;27;20049;-74
2021/12/11 08:33:07;;;;;;;21.83;12.35;;;0.50;99.90;;;;;;5160476;27;20034;-74
2021/12/11 08:35:33;;;;;;;20.75;12.65;;;0.50;99.90;;;;;;5160187;27;20056;-74
2021/12/11 08:38:00;;;;;;;22.77;14.40;;;0.60;99.90;;;;;;5134327;27;20074;-74
2021/12/11 08:40:31;;;;;;;21.65;12.93;;;0.60;99.90;;;;;;5135411;27;20122;-75
2021/12/11 08:42:59;;;;;;;20.38;12.40;;;0.60;99.90;;;;;;5148246;27;20050;-74
2021/12/11 08:45:36;;;;;;;20.45;14.43;;;0.70;99.90;;;;;;5142074;27;20058;-74
2021/12/11 08:48:02;;;;;;;16.73;12.43;;;0.70;99.90;;;;;;5138487;27;20811;-73
2021/12/11 08:50:30;;;;;;;20.65;14.55;;;0.70;99.90;;;;;;5120221;27;20100;-74
2021/12/11 08:52:57;;;;;;;21.92;13.85;;;0.80;99.90;;;;;;5119525;27;20568;-74
2021/12/11 08:55:30;;;;;;;20.40;12.95;;;0.70;99.90;;;;;;5118590;27;20051;-74
2021/12/11 08:57:57;;;;;;;21.83;13.90;;;0.80;99.90;;;;;;5136869;27;20039;-74
2021/12/11 09:00:36;;;;;;;24.90;14.55;;;0.80;99.90;;;;;;5137376;27;20074;-74
2021/12/11 09:03:37;;;;;;;22.80;14.07;;;0.90;99.90;;;;;;5115828;27;20465;-74
2021/12/11 09:06:18;;;;;;;22.10;14.90;;;0.90;99.90;;;;;;5084553;27;20165;-74
2021/12/11 09:09:03;;;;;;;27.42;16.23;;;1.00;99.90;;;;;;5136708;27;20791;-74
2021/12/11 09:11:35;;;;;;;22.08;13.88;;;1.00;99.90;;;;;;5139458;27;20082;-74
2021/12/11 09:14:10;;;;;;;25.02;14.85;;;1.00;99.90;;;;;;5120613;27;20944;-74
2021/12/11 09:16:42;;;;;;;23.48;15.73;;;1.10;99.90;;;;;;5125405;27;20121;-74
2021/12/11 09:19:29;;;;;;;20.63;13.43;;;1.20;99.90;;;;;;5140237;27;20082;-74
2021/12/11 09:21:58;;;;;;;23.77;15.65;;;1.20;99.90;;;;;;5122261;27;20043;-74
2021/12/11 09:24:27;;;;;;;21.20;14.25;;;1.30;99.90;;;;;;5123219;27;20050;-73
2021/12/11 09:27:11;;;;;;;21.25;13.00;;;1.30;99.90;;;;;;5122752;27;20137;-73
2021/12/11 09:29:41;;;;;;;;;;;1.40;99.90;;;;;;5122897;27;20058;-73
2021/12/11 09:32:26;;;;;;;23.88;14.73;;;1.50;99.90;;;;;;5123324;27;19934;-74
2021/12/11 09:35:21;;;;;;;24.95;15.90;;;1.70;99.90;;;;;;5141804;27;20144;-74
2021/12/11 09:37:49;;;;;;;23.20;16.05;;;1.70;99.90;;;;;;5119695;27;20054;-74
2021/12/11 09:40:30;;;;;;;21.65;15.20;;;1.70;99.90;;;;;;5141788;27;20049;-74
2021/12/11 09:42:55;;;;;;;27.15;16.85;;;1.80;99.90;;;;;;5122698;27;20042;-74
2021/12/11 09:45:26;;;;;;;23.20;15.32;;;1.70;99.90;;;;;;5122389;27;20115;-74
2021/12/11 09:48:03;;;;;;;27.38;16.05;;;1.80;99.90;;;;;;5122610;27;20052;-74
2021/12/11 09:50:35;;;;;;;23.30;14.85;;;1.80;99.90;;;;;;5139765;27;20142;-74
2021/12/11 09:53:01;;;;;;;25.08;16.65;;;1.80;99.90;;;;;;5121697;27;20035;-74
2021/12/11 09:55:32;;;;;;;26.00;15.93;;;1.80;99.90;;;;;;5121781;27;20123;-74
2021/12/11 09:58:01;;;;;;;32.83;17.67;;;1.90;99.90;;;;;;5141764;27;20050;-74
2021/12/11 10:00:42;;;;;;;26.35;14.95;;;1.90;99.90;;;;;;5142995;27;20759;-71
2021/12/11 10:03:09;;;;;;;22.90;15.25;;;1.90;99.90;;;;;;5143021;27;20900;-71
2021/12/11 10:05:45;;;;;;;21.98;14.43;;;1.90;99.90;;;;;;5127137;27;20164;-72
2021/12/11 10:08:31;;;;;;;23.35;16.50;;;2.00;99.90;;;;;;5162637;27;20057;-74
2021/12/11 10:11:08;;;;;;;20.42;15.05;;;2.00;99.90;;;;;;5144807;27;20076;-72
2021/12/11 10:13:57;;;;;;;28.00;16.65;;;2.00;99.90;;;;;;5144984;27;20655;-73
2021/12/11 10:16:26;;;;;;;28.05;14.50;;;2.10;99.90;;;;;;5143792;27;20812;-73
2021/12/11 10:18:54;;;;;;;23.35;15.88;;;2.10;99.90;;;;;;5163173;27;20049;-74
2021/12/11 10:21:25;;;;;;;24.67;15.02;;;2.10;99.90;;;;;;5109274;27;20051;-73
2021/12/11 10:23:54;;;;;;;23.10;15.60;;;2.20;99.90;;;;;;5102945;27;20058;-73
2021/12/11 10:26:22;;;;;;;24.70;15.10;;;2.20;99.90;;;;;;5103174;27;20059;-73
2021/12/11 10:28:52;;;;;;;25.48;15.93;;;2.30;99.90;;;;;;5121231;27;20058;-73
2021/12/11 10:31:34;;;;;;;25.15;15.20;;;2.30;99.90;;;;;;5127780;27;20106;-73
2021/12/11 10:34:03;;;;;;;25.48;15.98;;;2.40;99.90;;;;;;5141807;27;20671;-74
2021/12/11 10:36:32;;;;;;;22.13;13.95;;;2.40;99.90;;;;;;5141720;27;20049;-74
2021/12/11 10:38:59;;;;;;;29.30;17.67;;;2.40;99.90;;;;;;5102765;27;20058;-74
2021/12/11 10:41:27;;;;;;;23.25;13.88;;;2.50;99.90;;;;;;5153654;27;20358;-74
2021/12/11 10:43:57;;;;;;;26.30;15.25;;;2.50;99.90;;;;;;5143159;27;20106;-74
2021/12/11 10:46:28;;;;;;;29.77;15.27;;;2.60;99.90;;;;;;5162939;27;20153;-73
2021/12/11 10:48:54;;;;;;;26.08;15.57;;;2.60;99.90;;;;;;5144288;27;20046;-73
2021/12/11 10:51:27;;;;;;;25.02;16.30;;;2.70;99.90;;;;;;5162096;27;20077;-73
2021/12/11 10:53:54;;;;;;;24.80;15.52;;;2.70;99.90;;;;;;5162710;27;20140;-75
2021/12/11 10:56:22;;;;;;;23.13;15.90;;;2.80;99.90;;;;;;5162682;27;20057;-74
2021/12/11 10:58:52;;;;;;;31.90;17.45;;;2.80;99.90;;;;;;5143230;27;20061;-74
2021/12/11 11:01:30;;;;;;;25.00;15.68;;;2.90;99.90;;;;;;5143721;27;20058;-74
2021/12/11 11:04:02;;;;;;;31.70;14.25;;;3.00;99.90;;;;;;5104256;27;20055;-74
2021/12/11 11:06:28;;;;;;;22.73;16.02;;;3.00;99.90;;;;;;5123469;27;20126;-73
2021/12/11 11:08:57;;;;;;;29.58;16.63;;;3.00;99.90;;;;;;5142898;27;20049;-74
2021/12/11 11:11:28;;;;;;;23.60;15.48;;;3.10;99.90;;;;;;5161562;27;20046;-73
2021/12/11 11:13:54;;;;;;;23.52;16.23;;;3.10;99.90;;;;;;5143710;27;20061;-72
2021/12/11 11:16:20;;;;;;;25.65;17.42;;;3.10;99.90;;;;;;5139316;27;20039;-74
2021/12/11 11:18:47;;;;;;;26.58;16.55;;;3.10;99.90;;;;;;5121368;27;20079;-74
2021/12/11 11:21:17;;;;;;;25.40;15.60;;;3.20;99.90;;;;;;5137960;27;20038;-74
2021/12/11 11:23:45;;;;;;;23.13;16.55;;;3.20;99.90;;;;;;5143693;27;20042;-74
2021/12/11 11:26:15;;;;;;;29.88;16.63;;;3.20;99.90;;;;;;5161684;27;20125;-74
2021/12/11 11:28:41;;;;;;;30.48;15.68;;;3.30;99.90;;;;;;5162248;27;20042;-74
2021/12/11 11:31:10;;;;;;;25.98;16.50;;;3.30;99.90;;;;;;5143369;27;20050;-74
2021/12/11 11:33:37;;;;;;;26.77;13.88;;;3.40;99.90;;;;;;5143260;27;20052;-74
2021/12/11 11:36:07;;;;;;;26.52;17.60;;;3.40;99.90;;;;;;5162695;27;20074;-75
2021/12/11 11:38:36;;;;;;;31.70;16.30;;;3.50;99.90;;;;;;5126864;27;20099;-74
2021/12/11 11:41:12;;;;;;;27.83;18.13;;;3.50;99.90;;;;;;5126540;27;20857;-74
2021/12/11 11:43:39;;;;;;;27.92;15.02;;;3.60;99.90;;;;;;5142987;27;20484;-74
2021/12/11 11:46:05;;;;;;;27.23;16.40;;;3.60;99.90;;;;;;5142921;27;20664;-74
2021/12/11 11:48:34;;;;;;;30.83;18.88;;;3.70;99.90;;;;;;5143107;27;20072;-74
2021/12/11 11:51:03;;;;;;;24.30;16.10;;;3.70;99.90;;;;;;5142766;27;20042;-74
2021/12/11 11:53:29;;;;;;;33.17;18.92;;;3.80;99.90;;;;;;5141073;27;20082;-73
2021/12/11 11:56:01;;;;;;;26.77;18.30;;;4.00;99.90;;;;;;5142678;27;20125;-73
2021/12/11 11:58:28;;;;;;;24.02;15.98;;;4.10;99.90;;;;;;5141886;27;20060;-74
2021/12/11 12:01:01;;;;;;;27.52;15.73;;;4.20;99.90;;;;;;5160596;27;20077;-73
2021/12/11 12:03:28;;;;;;;26.98;17.27;;;4.30;99.90;;;;;;5130483;27;20715;-73
2021/12/11 12:05:58;;;;;;;26.73;17.10;;;4.40;99.90;;;;;;5113068;27;20038;-73
2021/12/11 12:08:24;;;;;;;25.20;15.93;;;4.50;99.90;;;;;;5141917;27;20054;-73
2021/12/11 12:10:51;;;;;;;25.73;16.05;;;4.50;99.90;;;;;;5142747;27;20056;-73
2021/12/11 12:13:19;;;;;;;27.50;17.80;;;4.60;99.90;;;;;;5156667;27;20765;-73
2021/12/11 12:15:48;;;;;;;26.13;15.05;;;4.60;99.90;;;;;;5141466;27;20050;-73
2021/12/11 12:18:19;;;;;;;22.70;14.88;;;4.60;99.90;;;;;;5160031;27;20052;-72
2021/12/11 12:20:46;;;;;;;22.55;15.20;;;4.70;99.90;;;;;;5130160;27;20497;-72
2021/12/11 12:23:12;;;;;;;31.50;16.45;;;5.50;99.90;;;;;;5120917;27;20050;-68
2021/12/11 12:25:40;;;;;;;23.38;14.10;;;4.70;99.90;;;;;;5139948;27;20054;-73
2021/12/11 12:28:05;;;;;;;26.38;15.98;;;4.70;99.90;;;;;;5121239;27;20050;-73
2021/12/11 12:30:38;;;;;;;33.33;18.70;;;4.80;99.90;;;;;;5139274;27;20208;-72
2021/12/11 12:33:06;;;;;;;26.30;15.73;;;4.80;99.90;;;;;;5139748;27;20065;-73
2021/12/11 12:35:32;;;;;;;26.25;16.75;;;4.80;99.90;;;;;;5139312;27;20043;-72
2021/12/11 12:38:00;;;;;;;23.42;14.60;;;4.90;99.90;;;;;;5135738;27;20136;-73
2021/12/11 12:40:35;;;;;;;32.83;14.85;;;4.90;99.90;;;;;;5125506;27;20046;-73
2021/12/11 12:43:13;;;;;;;22.90;14.23;;;4.90;99.90;;;;;;5138083;27;20101;-72
2021/12/11 12:45:41;;;;;;;26.02;13.93;;;4.90;99.90;;;;;;5157026;27;20045;-72
2021/12/11 12:48:12;;;;;;;31.73;15.73;;;4.90;99.90;;;;;;5157109;27;20046;-72
2021/12/11 12:51:11;;;;;;;24.52;14.90;;;4.80;99.90;;;;;;5156104;27;20054;-73
2021/12/11 12:53:39;;;;;;;21.65;14.65;;;4.80;99.90;;;;;;5114941;27;20058;-72
2021/12/11 12:56:18;;;;;;;28.00;14.77;;;4.80;99.90;;;;;;5138509;27;20065;-73
2021/12/11 12:58:51;;;;;;;24.17;14.75;;;4.80;99.90;;;;;;5157510;27;20053;-73
2021/12/11 13:01:23;;;;;;;17.17;12.95;;;4.70;99.90;;;;;;5138786;27;20509;-73
2021/12/11 13:03:50;;;;;;;24.00;15.23;;;4.70;99.90;;;;;;5121102;27;20039;-73
2021/12/11 13:06:20;;;;;;;29.63;14.32;;;4.70;99.90;;;;;;5115923;27;20050;-73
2021/12/11 13:08:51;;;;;;;25.15;13.55;;;4.60;99.90;;;;;;5139246;27;20054;-73
2021/12/11 13:11:26;;;;;;;22.38;13.68;;;4.60;99.90;;;;;;5157703;27;20079;-73